CST,Max TemperatureF,Mean TemperatureF,Min TemperatureF,Max Dew PointF,MeanDew PointF,Min DewpointF,Max Humidity, Mean Humidity, Min Humidity, Max Sea Level PressureIn, Mean Sea Level PressureIn, Min Sea Level PressureIn, Max VisibilityMiles, Mean VisibilityMiles, Min VisibilityMiles, Max Wind SpeedMPH, Mean Wind SpeedMPH, Max Gust SpeedMPH,PrecipitationIn, CloudCover, Events, WindDirDegrees
2012-2-1,62,59,55,59,53,46,100,80,60,30.24,30.17,30.11,10,7,1,13,5,17,0.38,8,Rain,167
2012-2-2,69,59,49,58,51,35,100,71,42,30.28,30.21,30.12,10,6,0,13,6,15,T,5,Fog,338
2012-2-3,64,57,50,49,41,33,83,63,42,30.32,30.28,30.21,10,10,4,18,10,30,0.21,4,Rain,95
2012-2-4,71,64,56,59,55,46,93,77,61,30.20,30.11,30.02,10,9,1,23,7,31,0.39,7,Rain,230
2012-2-5,59,53,46,58,51,41,100,77,53,30.20,30.13,30.06,10,8,2,15,7,17,0.00,6,,307
2012-2-6,60,50,40,44,41,38,96,74,51,30.25,30.20,30.17,10,8,2,10,3,17,0.00,1,,358
2012-2-7,62,49,36,39,35,25,92,59,25,30.26,30.21,30.16,10,10,7,10,3,16,0.02,1,Rain,14
2012-2-8,58,48,38,42,37,33,92,68,43,30.32,30.27,30.20,10,10,10,18,6,23,T,3,,346
2012-2-9,52,43,33,34,31,29,96,69,42,30.35,30.28,30.22,10,9,7,8,2,13,0.00,0,,302
2012-2-10,53,45,36,36,34,32,92,71,50,30.21,30.11,30.04,10,9,7,14,4,16,0.00,6,,297
2012-2-11,43,34,25,36,21,8,79,57,35,30.48,30.26,30.04,10,10,10,29,15,36,0.00,5,,324
2012-2-12,42,31,20,17,10,6,68,46,24,30.55,30.46,30.38,10,10,10,16,7,21,0.00,0,,349
2012-2-13,49,36,23,34,21,14,81,54,26,30.36,30.21,30.06,10,10,5,12,4,15,0.11,5,Rain,164
2012-2-14,51,45,38,45,40,35,92,83,74,30.15,30.04,29.98,10,8,5,13,4,17,0.12,8,Rain,157
2012-2-15,68,53,38,51,43,38,100,68,35,30.22,30.14,30.08,10,9,6,18,5,22,0.13,3,Rain,120
2012-2-16,67,59,50,57,52,45,100,76,52,30.16,30.11,30.06,10,7,2,13,5,18,0.34,6,Rain,30
2012-2-17,67,55,43,44,41,37,92,66,40,30.18,30.12,30.06,10,10,9,12,3,15,0.00,0,,33
2012-2-18,60,54,47,52,44,33,93,68,43,30.06,29.96,29.80,10,8,2,18,6,30,0.84,5,Rain,56
2012-2-19,52,43,34,49,43,32,100,88,76,30.14,29.86,29.72,10,6,2,21,8,29,0.08,7,Rain,354
2012-2-20,61,45,29,39,33,28,100,68,35,30.25,30.20,30.14,10,9,4,13,4,17,0.00,0,,112
2012-2-21,69,57,45,46,38,27,77,50,22,30.20,30.12,30.04,10,10,10,21,8,28,0.00,3,,207
2012-2-22,70,61,52,61,55,52,93,73,53,30.03,29.85,29.66,10,10,9,21,11,30,0.00,5,,221
2012-2-23,79,71,62,63,60,56,93,69,45,29.69,29.63,29.51,10,10,10,32,17,45,0.00,4,,210
2012-2-24,70,55,39,63,41,18,78,50,21,30.24,29.87,29.65,10,10,8,26,14,36,0.00,5,,282
2012-2-25,58,45,31,29,24,18,85,54,23,30.37,30.31,30.25,10,10,10,21,5,28,0.00,0,,322
2012-2-26,64,52,40,33,22,15,55,38,21,30.42,30.33,30.27,10,10,10,14,7,18,0.00,1,,135
2012-2-27,69,61,52,50,46,34,83,64,45,30.43,30.36,30.32,10,10,10,9,1,13,0.00,6,,113
2012-2-28,64,60,56,61,55,46,97,80,62,30.34,30.26,30.16,10,8,2,15,5,22,0.23,8,Rain,128
2012-2-29,73,68,63,65,62,60,93,83,73,30.19,30.05,29.93,10,9,2,23,13,31,0.11,7,Rain-Thunderstorm,196